Holiday, Florida
Current Conditions -  °F | °C
As of 6:35 PM on Monday 20 Oct 2014 (Local Time) from KCLW Reporting Station
Scattered Clouds Scattered Clouds  
Wind Chill: 77°   Ceiling: Unl
Heat Index: 79°   Visibility: 10mi
Dew Point: 64°   Wind: 5mph
Humidity: 65%   Direction: 330°NNW
Pressure: 29.94"   Gusts: NA
Location:  28.19°N, 82.74°W
Report Text: KCLW 202235Z AUTO 33004KT 10SM SCT060 25/18 A2994 RMK AO2
Loading
Personal Weather Stations






























Interactive Weather Map
Tropical Storm Tracking
New forecast layout! Learn more

10-Day Weather Forecast

Advertisements
Track Severe Weather on mobile